createdAt,value
2023-11-24T00:00:38.038Z,97647.70
2023-11-24T00:01:40.723Z,97642.45
2023-11-24T00:02:43.569Z,97650.32
2023-11-24T00:03:46.011Z,97644.09
2023-11-24T00:04:48.489Z,97649.23
2023-11-24T00:05:51.483Z,97647.30
2023-11-24T00:06:54.044Z,97639.44
2023-11-24T00:07:56.355Z,97636.67
2023-11-24T00:08:59.573Z,97637.25
2023-11-24T00:10:02.550Z,97630.36
2023-11-24T00:11:05.751Z,97635.61
2023-11-24T00:12:08.399Z,97632.15
2023-11-24T00:13:11.165Z,97639.04
2023-11-24T00:14:14.050Z,97640.02
2023-11-24T00:15:16.831Z,97624.13
2023-11-24T00:16:19.580Z,97622.34
2023-11-24T00:17:22.157Z,97619.58
2023-11-24T00:18:24.546Z,97624.02
2023-11-24T00:19:27.044Z,97629.13
2023-11-24T00:20:30.367Z,97638.79
2023-11-24T00:21:34.309Z,97612.69
2023-11-24T00:22:36.902Z,97632.84
2023-11-24T00:23:39.585Z,97635.61
2023-11-24T00:24:42.037Z,97617.36
2023-11-24T00:25:44.489Z,97625.37
2023-11-24T00:26:46.999Z,97613.05
2023-11-24T00:27:49.539Z,97605.19
2023-11-24T00:28:53.159Z,97607.70
2023-11-24T00:29:55.722Z,97617.25
2023-11-24T00:30:58.315Z,97610.58
2023-11-24T00:32:00.758Z,97603.40
2023-11-24T00:33:03.476Z,97599.25
2023-11-24T00:34:06.283Z,97607.12
2023-11-24T00:35:09.479Z,97607.81
2023-11-24T00:36:12.424Z,97595.53
2023-11-24T00:37:15.339Z,97598.99
2023-11-24T00:38:17.778Z,97603.40
2023-11-24T00:39:20.187Z,97601.76
2023-11-24T00:40:22.724Z,97606.86
2023-11-24T00:41:25.263Z,97586.82
2023-11-24T00:42:27.738Z,97594.69
2023-11-24T00:43:31.250Z,97588.39
2023-11-24T00:44:34.592Z,97597.06
2023-11-24T00:45:37.173Z,97612.80
2023-11-24T00:46:39.900Z,97593.74
2023-11-24T00:47:42.600Z,97592.80
2023-11-24T00:48:45.443Z,97589.33
2023-11-24T00:49:47.880Z,97591.95
2023-11-24T00:50:50.754Z,97574.55
2023-11-24T00:51:53.658Z,97584.09
2023-11-24T00:52:56.535Z,97583.14
2023-11-24T00:53:59.072Z,97578.70
2023-11-24T00:55:01.634Z,97563.94
2023-11-24T00:56:04.887Z,97569.19
2023-11-24T00:57:07.477Z,97577.75
2023-11-24T00:58:09.979Z,97573.20
2023-11-24T00:59:12.475Z,97564.63
2023-11-24T01:00:16.243Z,97573.34
2023-11-24T01:01:18.736Z,97564.48
2023-11-24T01:02:21.532Z,97578.33
2023-11-24T01:03:24.449Z,97565.21
2023-11-24T01:04:27.708Z,97567.69
2023-11-24T01:05:30.385Z,97564.95
2023-11-24T01:06:33.164Z,97567.44
2023-11-24T01:07:36.124Z,97571.01
2023-11-24T01:08:39.014Z,97570.45
2023-11-24T01:09:41.820Z,97564.23
2023-11-24T01:10:44.910Z,97558.14
2023-11-24T01:11:47.414Z,97557.45
2023-11-24T01:12:49.934Z,97552.35
2023-11-24T01:13:52.547Z,97553.30
2023-11-24T01:14:55.115Z,97537.56
2023-11-24T01:15:58.208Z,97547.10
2023-11-24T01:17:01.083Z,97541.86
2023-11-24T01:18:04.980Z,97536.61
2023-11-24T01:19:07.733Z,97526.95
2023-11-24T01:20:12.648Z,97530.38
2023-11-24T01:21:15.393Z,97538.25
2023-11-24T01:22:17.863Z,97530.38
2023-11-24T01:23:20.263Z,97526.23
2023-11-24T01:24:23.228Z,97526.11
2023-11-24T01:25:25.804Z,97526.23
2023-11-24T01:26:28.908Z,97515.87
2023-11-24T01:27:31.523Z,97521.96
2023-11-24T01:28:34.024Z,97513.36
2023-11-24T01:29:36.604Z,97524.70
2023-11-24T01:30:39.481Z,97517.92
2023-11-24T01:31:41.950Z,97503.28
2023-11-24T01:32:44.559Z,97502.07
2023-11-24T01:33:47.301Z,97501.23
2023-11-24T01:34:49.954Z,97494.20
2023-11-24T01:35:52.502Z,97494.20
2023-11-24T01:36:55.246Z,97494.20
2023-11-24T01:37:57.744Z,97480.10
2023-11-24T01:39:00.226Z,97488.80
2023-11-24T01:40:04.291Z,97501.92
2023-11-24T01:41:07.094Z,97482.88
2023-11-24T01:42:09.644Z,97480.10
2023-11-24T01:43:12.110Z,97473.33
2023-11-24T01:44:14.701Z,97468.23
2023-11-24T01:45:17.202Z,97476.21
2023-11-24T01:46:19.973Z,97467.50
2023-11-24T01:47:22.496Z,97465.17
2023-11-24T01:48:25.163Z,97469.44
2023-11-24T01:49:28.487Z,97464.34
2023-11-24T01:50:31.718Z,97459.20
2023-11-24T01:51:34.390Z,97460.04
2023-11-24T01:52:37.023Z,97468.74
2023-11-24T01:53:39.588Z,97456.58
2023-11-24T01:54:42.304Z,97467.07
2023-11-24T01:55:46.907Z,97470.79
2023-11-24T01:56:49.677Z,97450.79
2023-11-24T01:57:52.338Z,97453.41
2023-11-24T01:58:55.736Z,97453.27
2023-11-24T01:59:59.385Z,97449.70
2023-11-24T02:01:02.052Z,97453.01
2023-11-24T02:02:04.709Z,97446.92
2023-11-24T02:03:07.691Z,97442.63
2023-11-24T02:04:10.556Z,97447.07
2023-11-24T02:05:13.386Z,97441.10
2023-11-24T02:06:16.834Z,97439.46
2023-11-24T02:07:19.341Z,97431.59
2023-11-24T02:08:22.950Z,97425.37
2023-11-24T02:09:25.466Z,97425.37
2023-11-24T02:10:28.480Z,97426.20
2023-11-24T02:11:31.247Z,97432.28
2023-11-24T02:12:33.948Z,97424.27
2023-11-24T02:13:36.686Z,97421.53
2023-11-24T02:14:39.250Z,97420.70
2023-11-24T02:15:41.877Z,97420.00
2023-11-24T02:16:44.635Z,97422.74
2023-11-24T02:17:47.261Z,97420.84
2023-11-24T02:18:49.867Z,97412.14
2023-11-24T02:19:52.721Z,97412.83
2023-11-24T02:20:55.494Z,97409.37
2023-11-24T02:21:58.058Z,97406.75
2023-11-24T02:23:00.823Z,97405.65
2023-11-24T02:24:04.005Z,97409.11
2023-11-24T02:25:07.928Z,97413.41
2023-11-24T02:26:11.693Z,97398.35
2023-11-24T02:27:14.474Z,97412.42
2023-11-24T02:28:16.991Z,97403.75
2023-11-24T02:29:19.600Z,97398.35
2023-11-24T02:30:23.128Z,97412.98
2023-11-24T02:31:25.957Z,97408.44
2023-11-24T02:32:28.435Z,97401.40
2023-11-24T02:33:31.209Z,97390.91
2023-11-24T02:34:33.746Z,97398.77
2023-11-24T02:35:36.234Z,97394.25
2023-11-24T02:36:38.895Z,97401.97
2023-11-24T02:37:41.362Z,97389.69
2023-11-24T02:38:44.340Z,97397.30
2023-11-24T02:39:47.092Z,97393.69
2023-11-24T02:40:49.984Z,97379.73
2023-11-24T02:41:52.303Z,97394.52
2023-11-24T02:42:54.883Z,97375.32
2023-11-24T02:43:57.497Z,97377.94
2023-11-24T02:44:59.958Z,97376.04
2023-11-24T02:46:02.670Z,97383.91
2023-11-24T02:47:05.841Z,97391.78
2023-11-24T02:48:08.612Z,97386.39
2023-11-24T02:49:11.232Z,97374.10
2023-11-24T02:50:13.939Z,97359.20
2023-11-24T02:51:16.290Z,97354.75
2023-11-24T02:52:18.840Z,97366.08
2023-11-24T02:53:21.416Z,97357.94
2023-11-24T02:54:23.888Z,97348.97
2023-11-24T02:55:26.554Z,97346.22
2023-11-24T02:56:29.212Z,97359.20
2023-11-24T02:57:31.647Z,97340.83
2023-11-24T02:58:34.449Z,97351.20
2023-11-24T02:59:36.923Z,97372.05
2023-11-24T03:00:39.610Z,97349.27
2023-11-24T03:01:42.203Z,97346.37
2023-11-24T03:02:45.092Z,97323.43
2023-11-24T03:03:47.720Z,97332.97
2023-11-24T03:04:50.403Z,97349.53
2023-11-24T03:05:53.035Z,97317.23
2023-11-24T03:06:55.960Z,97310.16
2023-11-24T03:07:58.542Z,97300.38
2023-11-24T03:09:01.142Z,97301.20
2023-11-24T03:10:04.868Z,97296.64
2023-11-24T03:11:07.712Z,97303.41
2023-11-24T03:12:10.582Z,97298.99
2023-11-24T03:13:13.419Z,97307.67
2023-11-24T03:14:16.497Z,97301.34
2023-11-24T03:15:19.011Z,97309.06
2023-11-24T03:16:21.654Z,97306.29
2023-11-24T03:17:24.133Z,97305.21
2023-11-24T03:18:26.710Z,97315.71
2023-11-24T03:19:29.372Z,97304.22
2023-11-24T03:20:32.029Z,97306.02
2023-11-24T03:21:34.636Z,97307.69
2023-11-24T03:22:37.175Z,97301.47
2023-11-24T03:23:39.740Z,97306.58
2023-11-24T03:24:42.234Z,97302.16
2023-11-24T03:25:44.885Z,97293.45
2023-11-24T03:26:47.650Z,97295.95
2023-11-24T03:27:50.388Z,97290.70
2023-11-24T03:28:52.884Z,97280.87
2023-11-24T03:29:55.685Z,97282.39
2023-11-24T03:30:58.327Z,97284.86
2023-11-24T03:32:00.681Z,97287.36
2023-11-24T03:33:03.195Z,97265.37
2023-11-24T03:34:05.685Z,97263.58
2023-11-24T03:35:08.712Z,97270.50
2023-11-24T03:36:12.805Z,97284.46
2023-11-24T03:37:15.369Z,97284.59
2023-11-24T03:38:17.924Z,97267.03
2023-11-24T03:39:20.396Z,97262.74
2023-11-24T03:40:24.818Z,97260.95
2023-11-24T03:41:27.188Z,97240.78
2023-11-24T03:42:29.791Z,97257.37
2023-11-24T03:43:32.266Z,97252.11
2023-11-24T03:44:34.767Z,97241.61
2023-11-24T03:45:37.767Z,97229.16
2023-11-24T03:46:40.786Z,97222.95
2023-11-24T03:47:43.127Z,97213.95
2023-11-24T03:48:45.648Z,97219.73
2023-11-24T03:49:48.228Z,97229.95
2023-11-24T03:50:51.298Z,97228.71
2023-11-24T03:51:53.874Z,97237.43
2023-11-24T03:52:56.325Z,97226.92
2023-11-24T03:53:58.998Z,97239.89
2023-11-24T03:55:01.634Z,97238.27
2023-11-24T03:56:05.053Z,97219.87
2023-11-24T03:57:07.571Z,97224.97
2023-11-24T03:58:10.113Z,97198.70
2023-11-24T03:59:12.447Z,97210.05
2023-11-24T04:00:16.616Z,97206.58
2023-11-24T04:01:19.497Z,97214.47
2023-11-24T04:02:41.804Z,97199.38
2023-11-24T04:03:45.017Z,97206.30
2023-11-24T04:04:47.536Z,97193.16
2023-11-24T04:05:52.027Z,97187.91
2023-11-24T04:06:54.809Z,97166.89
2023-11-24T04:07:57.357Z,97157.34
2023-11-24T04:08:59.932Z,97142.30
2023-11-24T04:10:02.628Z,97143.09
2023-11-24T04:11:05.572Z,97150.97
2023-11-24T04:12:08.146Z,97167.57
2023-11-24T04:13:10.706Z,97144.09
2023-11-24T04:14:13.580Z,97127.33
2023-11-24T04:15:16.181Z,97132.75
2023-11-24T04:16:19.043Z,97138.00
2023-11-24T04:17:21.998Z,97138.96
2023-11-24T04:18:25.204Z,97175.73
2023-11-24T04:19:27.745Z,97167.02
2023-11-24T04:20:31.363Z,97190.66
2023-11-24T04:21:34.015Z,97198.42
2023-11-24T04:22:37.253Z,97208.77
2023-11-24T04:23:39.756Z,97220.78
2023-11-24T04:24:42.209Z,97223.28
2023-11-24T04:25:44.784Z,97229.38
2023-11-24T04:26:47.785Z,97252.19
2023-11-24T04:27:50.213Z,97234.63
2023-11-24T04:28:52.890Z,97242.36
2023-11-24T04:29:55.491Z,97270.30
2023-11-24T04:30:58.365Z,97264.88
2023-11-24T04:32:00.804Z,97268.34
2023-11-24T04:33:03.808Z,97274.28
2023-11-24T04:34:06.334Z,97269.17
2023-11-24T04:35:09.328Z,97265.44
2023-11-24T04:36:12.213Z,97270.69
2023-11-24T04:37:14.963Z,97274.98
2023-11-24T04:38:17.533Z,97269.73
2023-11-24T04:39:20.109Z,97260.18
2023-11-24T04:40:22.736Z,97244.41
2023-11-24T04:41:24.997Z,97255.60
2023-11-24T04:42:27.419Z,97259.06
2023-11-24T04:43:29.736Z,97273.88
2023-11-24T04:44:32.336Z,97287.97
2023-11-24T04:45:34.903Z,97265.98
2023-11-24T04:46:37.641Z,97270.13
2023-11-24T04:47:40.275Z,97281.44
2023-11-24T04:48:43.060Z,97282.27
2023-11-24T04:49:45.704Z,97277.02
2023-11-24T04:50:48.135Z,97296.13
2023-11-24T04:51:50.575Z,97273.55
2023-11-24T04:52:52.860Z,97282.15
2023-11-24T04:53:55.329Z,97276.61
2023-11-24T04:54:57.891Z,97285.30
2023-11-24T04:56:00.467Z,97271.35
2023-11-24T04:57:03.137Z,97260.84
2023-11-24T04:58:05.682Z,97257.09
2023-11-24T04:59:08.278Z,97251.96
2023-11-24T05:00:12.531Z,97249.33
2023-11-24T05:01:15.216Z,97265.94
2023-11-24T05:02:17.834Z,97251.13
2023-11-24T05:03:20.323Z,97265.11
2023-11-24T05:04:23.184Z,97248.38
2023-11-24T05:05:25.607Z,97257.92
2023-11-24T05:06:28.226Z,97247.26
2023-11-24T05:07:30.893Z,97254.18
2023-11-24T05:08:33.416Z,97260.23
2023-11-24T05:09:35.898Z,97245.17
2023-11-24T05:10:38.557Z,97241.84
2023-11-24T05:11:40.972Z,97245.46
2023-11-24T05:12:43.354Z,97240.05
2023-11-24T05:13:46.014Z,97247.93
2023-11-24T05:14:48.304Z,97254.02
2023-11-24T05:15:51.346Z,97243.38
2023-11-24T05:16:54.019Z,97243.38
2023-11-24T05:17:56.354Z,97251.27
2023-11-24T05:18:58.836Z,97256.36
2023-11-24T05:20:03.286Z,97252.06
2023-11-24T05:21:05.895Z,97257.33
2023-11-24T05:22:08.345Z,97254.57
2023-11-24T05:23:10.853Z,97251.11
2023-11-24T05:24:13.281Z,97260.66
2023-11-24T05:25:15.937Z,97260.50
2023-11-24T05:26:18.658Z,97267.55
2023-11-24T05:27:21.273Z,97273.48
2023-11-24T05:28:23.626Z,97256.63
2023-11-24T05:29:25.877Z,97258.42
2023-11-24T05:30:28.581Z,97260.77
2023-11-24T05:31:31.052Z,97266.83
2023-11-24T05:32:33.615Z,97261.72
2023-11-24T05:33:36.035Z,97252.05
2023-11-24T05:34:38.620Z,97263.39
2023-11-24T05:35:41.282Z,97255.34
2023-11-24T05:36:43.829Z,97256.85
2023-11-24T05:37:46.511Z,97257.69
2023-11-24T05:38:48.780Z,97266.41
2023-11-24T05:39:51.471Z,97262.78
2023-11-24T05:40:54.125Z,97241.75
2023-11-24T05:41:56.595Z,97248.52
2023-11-24T05:42:58.889Z,97256.41
2023-11-24T05:44:01.408Z,97258.91
2023-11-24T05:45:04.900Z,97245.60
2023-11-24T05:46:07.507Z,97261.38
2023-11-24T05:47:10.133Z,97245.60
2023-11-24T05:48:12.706Z,97262.21
2023-11-24T05:49:15.166Z,97245.60
2023-11-24T05:50:18.139Z,97250.73
2023-11-24T05:51:21.155Z,97252.23
2023-11-24T05:52:23.690Z,97252.91
2023-11-24T05:53:26.125Z,97255.41
2023-11-24T05:54:28.588Z,97256.09
2023-11-24T05:55:31.050Z,97259.39
2023-11-24T05:56:33.605Z,97257.44
2023-11-24T05:57:36.078Z,97274.05
2023-11-24T05:58:38.688Z,97258.27
2023-11-24T05:59:41.242Z,97262.41
2023-11-24T06:00:44.046Z,97271.80
2023-11-24T06:01:46.563Z,97276.09
2023-11-24T06:02:49.153Z,97276.09
2023-11-24T06:03:51.832Z,97291.88
2023-11-24T06:04:54.604Z,97273.76
2023-11-24T06:05:57.579Z,97278.05
2023-11-24T06:07:01.308Z,97282.32
2023-11-24T06:08:04.634Z,97272.63
2023-11-24T06:09:07.073Z,97280.52
2023-11-24T06:10:10.808Z,97276.09
2023-11-24T06:11:13.582Z,97277.77
2023-11-24T06:12:16.147Z,97275.94
2023-11-24T06:13:18.765Z,97268.75
2023-11-24T06:14:21.256Z,97274.84
2023-11-24T06:15:23.753Z,97278.28
2023-11-24T06:16:26.429Z,97278.28
2023-11-24T06:17:28.772Z,97268.59
2023-11-24T06:18:31.900Z,97259.06
2023-11-24T06:19:34.738Z,97269.27
2023-11-24T06:20:37.343Z,97266.50
2023-11-24T06:21:39.881Z,97262.08
2023-11-24T06:22:42.860Z,97273.43
2023-11-24T06:23:45.310Z,97262.91
2023-11-24T06:24:47.767Z,97261.23
2023-11-24T06:25:50.355Z,97258.61
2023-11-24T06:26:52.864Z,97256.66
2023-11-24T06:27:55.492Z,97253.19
2023-11-24T06:28:58.008Z,97243.50
2023-11-24T06:30:00.404Z,97247.63
2023-11-24T06:31:03.135Z,97245.83
2023-11-24T06:32:06.583Z,97230.05
2023-11-24T06:33:09.073Z,97238.48
2023-11-24T06:34:11.918Z,97234.05
2023-11-24T06:35:14.691Z,97225.03
2023-11-24T06:36:17.403Z,97230.97
2023-11-24T06:37:20.023Z,97227.37
2023-11-24T06:38:22.748Z,97226.37
2023-11-24T06:39:25.513Z,97237.57
2023-11-24T06:40:28.125Z,97227.05
2023-11-24T06:41:30.654Z,97230.38
2023-11-24T06:42:33.125Z,97225.78
2023-11-24T06:43:35.841Z,97242.91
2023-11-24T06:44:38.248Z,97255.10
2023-11-24T06:45:40.769Z,97253.30
2023-11-24T06:46:43.442Z,97255.94
2023-11-24T06:47:45.952Z,97257.61
2023-11-24T06:48:48.725Z,97253.02
2023-11-24T06:49:51.182Z,97255.48
2023-11-24T06:50:53.793Z,97251.05
2023-11-24T06:51:56.620Z,97259.61
2023-11-24T06:52:59.441Z,97265.71
2023-11-24T06:54:02.314Z,97270.84
2023-11-24T06:55:05.378Z,97279.25
2023-11-24T06:56:08.843Z,97268.05
2023-11-24T06:57:11.356Z,97266.38
2023-11-24T06:58:13.939Z,97273.48
2023-11-24T06:59:17.589Z,97265.58
2023-11-24T07:00:20.899Z,97269.02
2023-11-24T07:01:30.446Z,97270.84
2023-11-24T07:02:34.917Z,97274.44
2023-11-24T07:03:37.763Z,97271.14
2023-11-24T07:04:40.602Z,97273.77
2023-11-24T07:05:43.150Z,97268.51
2023-11-24T07:06:46.007Z,97255.19
2023-11-24T07:07:48.580Z,97262.11
2023-11-24T07:08:51.256Z,97275.11
2023-11-24T07:09:54.156Z,97269.84
2023-11-24T07:10:56.747Z,97270.52
2023-11-24T07:11:59.365Z,97269.72
2023-11-24T07:13:01.892Z,97285.51
2023-11-24T07:14:04.542Z,97277.75
2023-11-24T07:15:07.889Z,97278.41
2023-11-24T07:16:12.027Z,97270.38
2023-11-24T07:17:14.661Z,97282.58
2023-11-24T07:18:17.165Z,97280.75
2023-11-24T07:19:19.882Z,97287.84
2023-11-24T07:20:22.915Z,97286.84
2023-11-24T07:21:28.919Z,97289.48
2023-11-24T07:22:31.485Z,97275.65
2023-11-24T07:23:34.046Z,97280.08
2023-11-24T07:24:39.792Z,97276.48
2023-11-24T07:25:42.670Z,97287.84
2023-11-24T07:26:45.643Z,97279.78
2023-11-24T07:27:50.208Z,97270.92
2023-11-24T07:28:52.937Z,97286.55
2023-11-24T07:29:55.394Z,97273.92
2023-11-24T07:30:57.992Z,97272.63
2023-11-24T07:32:02.168Z,97270.53
2023-11-24T07:33:04.769Z,97271.37
2023-11-24T07:34:07.498Z,97278.14
2023-11-24T07:35:10.306Z,97268.14
2023-11-24T07:36:13.149Z,97276.54
2023-11-24T07:37:15.623Z,97264.08
2023-11-24T07:38:18.087Z,97268.23
2023-11-24T07:39:21.160Z,97267.23
2023-11-24T07:40:23.878Z,97261.84
2023-11-24T07:41:26.501Z,97264.31
2023-11-24T07:42:29.067Z,97274.84
2023-11-24T07:43:31.741Z,97272.74
2023-11-24T07:44:34.316Z,97276.88
2023-11-24T07:45:36.929Z,97274.91
2023-11-24T07:46:39.684Z,97266.34
2023-11-24T07:47:42.440Z,97269.14
2023-11-24T07:48:45.033Z,97294.64
2023-11-24T07:49:47.551Z,97268.61
2023-11-24T07:50:50.065Z,97271.91
2023-11-24T07:51:52.555Z,97265.67
2023-11-24T07:52:57.775Z,97275.91
2023-11-24T07:53:59.451Z,97283.64
2023-11-24T07:55:01.943Z,97276.88
2023-11-24T07:56:04.886Z,97275.20
2023-11-24T07:57:07.879Z,97275.38
2023-11-24T07:58:10.747Z,97271.91
2023-11-24T07:59:13.322Z,97273.04
2023-11-24T08:00:18.205Z,97268.91
2023-11-24T08:01:20.789Z,97269.20
2023-11-24T08:02:23.518Z,97277.38
2023-11-24T08:03:26.127Z,97271.27
2023-11-24T08:04:28.714Z,97264.20
2023-11-24T08:05:31.489Z,97267.54
2023-11-24T08:06:34.775Z,97271.27
2023-11-24T08:07:37.088Z,97282.80
2023-11-24T08:08:39.348Z,97279.47
2023-11-24T08:09:41.792Z,97267.97
2023-11-24T08:10:44.320Z,97277.54
2023-11-24T08:11:46.990Z,97278.20
2023-11-24T08:12:49.821Z,97273.77
2023-11-24T08:13:52.235Z,97285.14
2023-11-24T08:14:54.602Z,97284.44
2023-11-24T08:15:57.162Z,97282.64
2023-11-24T08:17:00.056Z,97284.44
2023-11-24T08:18:02.660Z,97283.47
2023-11-24T08:19:05.176Z,97298.02
2023-11-24T08:20:09.118Z,97295.78
2023-11-24T08:21:11.687Z,97301.71
2023-11-24T08:22:14.683Z,97300.75
2023-11-24T08:23:17.406Z,97308.19
2023-11-24T08:24:19.864Z,97307.19
2023-11-24T08:25:22.307Z,97307.05
2023-11-24T08:26:24.897Z,97307.59
2023-11-24T08:27:27.347Z,97294.91
2023-11-24T08:28:31.965Z,97305.16
2023-11-24T08:29:34.587Z,97297.78
2023-11-24T08:30:37.798Z,97300.78
2023-11-24T08:31:40.274Z,97298.80
2023-11-24T08:32:45.455Z,97294.23
2023-11-24T08:33:47.311Z,97298.20
2023-11-24T08:34:49.806Z,97295.27
2023-11-24T08:35:52.288Z,97304.67
2023-11-24T08:36:54.928Z,97296.45
2023-11-24T08:37:57.268Z,97300.59
2023-11-24T08:38:59.750Z,97300.28
2023-11-24T08:40:03.267Z,97300.95
2023-11-24T08:41:21.130Z,97291.77
2023-11-24T08:42:17.874Z,97291.77
2023-11-24T08:43:20.443Z,97296.87
2023-11-24T08:44:23.379Z,97290.45
2023-11-24T08:45:25.894Z,97297.92
2023-11-24T08:46:28.931Z,97300.25
2023-11-24T08:47:31.708Z,97310.80
2023-11-24T08:48:35.759Z,97299.41
2023-11-24T08:49:38.599Z,97288.70
2023-11-24T08:50:41.465Z,97296.47
2023-11-24T08:51:44.189Z,97295.64
2023-11-24T08:52:46.978Z,97285.40
2023-11-24T08:53:49.563Z,97281.63
2023-11-24T08:54:52.511Z,97286.89
2023-11-24T08:55:57.376Z,97264.83
2023-11-24T08:57:00.207Z,97278.02
2023-11-24T08:58:02.708Z,97278.02
2023-11-24T08:59:05.201Z,97290.06
2023-11-24T09:00:09.138Z,97290.41
2023-11-24T09:01:14.969Z,97292.05
2023-11-24T09:02:17.837Z,97280.70
2023-11-24T09:03:20.838Z,97291.86
2023-11-24T09:04:23.552Z,97282.45
2023-11-24T09:05:26.331Z,97300.08
2023-11-24T09:06:29.450Z,97287.87
2023-11-24T09:07:31.915Z,97276.34
2023-11-24T09:08:34.449Z,97279.16
2023-11-24T09:09:37.039Z,97283.42
2023-11-24T09:10:39.720Z,97273.70
2023-11-24T09:11:42.195Z,97281.45
2023-11-24T09:12:44.817Z,97273.41
2023-11-24T09:13:49.668Z,97268.96
2023-11-24T09:14:51.811Z,97274.06
2023-11-24T09:15:54.279Z,97270.59
2023-11-24T09:16:56.872Z,97277.84
2023-11-24T09:17:59.232Z,97289.05
2023-11-24T09:19:01.809Z,97288.91
2023-11-24T09:20:05.716Z,97284.30
2023-11-24T09:21:08.268Z,97278.05
2023-11-24T09:22:11.277Z,97280.39
2023-11-24T09:23:13.669Z,97272.96
2023-11-24T09:24:16.188Z,97271.67
2023-11-24T09:25:18.727Z,97271.37
2023-11-24T09:26:21.403Z,97283.20
2023-11-24T09:27:23.962Z,97272.13
2023-11-24T09:28:26.526Z,97277.58
2023-11-24T09:29:29.075Z,97284.66
2023-11-24T09:30:31.889Z,97273.27
2023-11-24T09:31:34.633Z,97275.25
2023-11-24T09:32:37.135Z,97269.84
2023-11-24T09:33:40.129Z,97269.00
2023-11-24T09:34:42.748Z,97263.55
2023-11-24T09:35:45.350Z,97265.36
2023-11-24T09:36:48.027Z,97267.20
2023-11-24T09:37:50.872Z,97266.20
2023-11-24T09:38:53.183Z,97268.83
2023-11-24T09:39:55.637Z,97277.41
2023-11-24T09:41:06.830Z,97258.80
2023-11-24T09:42:10.149Z,97261.78
2023-11-24T09:43:12.835Z,97269.88
2023-11-24T09:44:15.912Z,97259.15
2023-11-24T09:45:20.659Z,97260.64
2023-11-24T09:46:23.811Z,97261.30
2023-11-24T09:47:28.147Z,97256.20
2023-11-24T09:48:33.024Z,97253.39
2023-11-24T09:49:35.694Z,97244.50
2023-11-24T09:50:39.212Z,97253.77
2023-11-24T09:51:42.577Z,97252.10
2023-11-24T09:52:46.370Z,97252.10
2023-11-24T09:53:49.583Z,97248.49
2023-11-24T09:54:53.450Z,97247.17
2023-11-24T09:55:56.006Z,97234.33
2023-11-24T09:56:58.691Z,97245.70
2023-11-24T09:58:01.202Z,97260.70
2023-11-24T09:59:03.629Z,97241.89
2023-11-24T10:00:07.645Z,97245.51
2023-11-24T10:01:18.193Z,97251.79
2023-11-24T10:02:23.160Z,97252.62
2023-11-24T10:03:27.178Z,97253.94
2023-11-24T10:04:29.476Z,97249.50
2023-11-24T10:05:32.323Z,97259.88
2023-11-24T10:06:36.502Z,97267.13
2023-11-24T10:07:40.524Z,97265.64
2023-11-24T10:08:43.508Z,97284.94
2023-11-24T10:09:48.437Z,97285.25
2023-11-24T10:10:51.091Z,97273.20
2023-11-24T10:11:53.561Z,97283.10
2023-11-24T10:12:57.599Z,97288.52
2023-11-24T10:14:00.942Z,97287.69
2023-11-24T10:15:04.232Z,97287.86
2023-11-24T10:16:07.356Z,97294.94
2023-11-24T10:17:13.370Z,97273.00
2023-11-24T10:18:15.932Z,97288.69
2023-11-24T10:19:21.958Z,97286.40
2023-11-24T10:20:23.146Z,97295.50
2023-11-24T10:21:30.731Z,97299.62
2023-11-24T10:22:31.517Z,97289.91
2023-11-24T10:23:34.875Z,97293.87
2023-11-24T10:24:37.772Z,97276.89
2023-11-24T10:25:40.370Z,97278.06
2023-11-24T10:26:43.189Z,97275.62
2023-11-24T10:27:45.816Z,97275.31
2023-11-24T10:28:48.455Z,97288.19
2023-11-24T10:29:51.721Z,97279.44
2023-11-24T10:30:55.952Z,97280.59
2023-11-24T10:32:00.668Z,97283.23
2023-11-24T10:33:04.153Z,97279.76
2023-11-24T10:34:06.762Z,97287.67
2023-11-24T10:35:09.682Z,97294.24
2023-11-24T10:36:12.802Z,97273.30
2023-11-24T10:37:16.208Z,97286.81
2023-11-24T10:38:19.372Z,97266.64
2023-11-24T10:39:23.546Z,97281.16
2023-11-24T10:40:26.612Z,97276.54
2023-11-24T10:41:30.227Z,97279.18
2023-11-24T10:42:33.517Z,97284.45
2023-11-24T10:43:37.716Z,97278.34
2023-11-24T10:44:42.067Z,97272.27
2023-11-24T10:45:45.531Z,97269.80
2023-11-24T10:46:49.383Z,97263.58
2023-11-24T10:48:10.440Z,97256.83
2023-11-24T10:50:33.925Z,97270.91
2023-11-24T10:51:40.286Z,97275.33
2023-11-24T10:52:58.564Z,97279.95
2023-11-24T10:54:02.940Z,97273.02
2023-11-24T10:56:17.845Z,97275.88
2023-11-24T10:57:21.992Z,97287.87
2023-11-24T10:58:24.639Z,97277.14
2023-11-24T10:59:27.792Z,97281.59
2023-11-24T11:00:43.144Z,97290.86
2023-11-24T11:01:47.612Z,97305.03
2023-11-24T11:02:50.491Z,97288.34
2023-11-24T11:03:54.704Z,97293.59
2023-11-24T11:05:06.742Z,97283.00
2023-11-24T11:06:19.584Z,97289.59
2023-11-24T11:08:54.535Z,97286.95
2023-11-24T11:09:58.596Z,97286.71
2023-11-24T11:12:37.404Z,97291.19
2023-11-24T11:13:42.122Z,97295.73
2023-11-24T11:14:44.890Z,97297.84
2023-11-24T11:15:47.432Z,97297.18
2023-11-24T11:16:53.028Z,97293.40
2023-11-24T11:18:12.298Z,97294.76
2023-11-24T11:19:31.992Z,97296.74
2023-11-24T11:20:35.167Z,97291.47
2023-11-24T11:21:37.730Z,97286.05
2023-11-24T11:22:41.871Z,97291.47
2023-11-24T11:23:44.482Z,97291.47
2023-11-24T11:24:47.782Z,97293.97
2023-11-24T11:25:50.621Z,97302.84
2023-11-24T11:26:53.422Z,97292.47
2023-11-24T11:27:55.897Z,97290.49
2023-11-24T11:28:58.480Z,97303.02
2023-11-24T11:30:00.938Z,97296.08
2023-11-24T11:32:34.242Z,97295.46
2023-11-24T11:33:36.832Z,97297.84
2023-11-24T11:34:39.972Z,97284.83
2023-11-24T11:35:43.140Z,97302.45
2023-11-24T11:36:51.415Z,97301.80
2023-11-24T11:37:58.885Z,97295.82
2023-11-24T11:39:01.350Z,97300.25
2023-11-24T11:40:14.137Z,97301.30
2023-11-24T11:41:41.302Z,97300.28
2023-11-24T11:42:54.376Z,97305.03
2023-11-24T11:43:56.990Z,97304.67
2023-11-24T11:45:05.964Z,97321.92
2023-11-24T11:46:08.873Z,97318.75
2023-11-24T11:47:15.733Z,97321.55
2023-11-24T11:48:18.735Z,97337.67
2023-11-24T11:49:21.745Z,97318.02
2023-11-24T11:50:24.727Z,97315.55
2023-11-24T11:51:28.263Z,97319.45
2023-11-24T11:52:30.796Z,97328.36
2023-11-24T11:53:35.886Z,97330.46
2023-11-24T11:54:39.555Z,97315.09
2023-11-24T11:55:42.165Z,97321.36
2023-11-24T11:56:44.923Z,97331.89
2023-11-24T11:59:04.476Z,97332.63
2023-11-24T12:00:08.780Z,97318.05
2023-11-24T12:01:11.499Z,97335.49
2023-11-24T12:02:19.083Z,97332.73
2023-11-24T12:03:22.882Z,97336.03
2023-11-24T12:04:25.877Z,97333.93
2023-11-24T12:05:28.261Z,97326.83
2023-11-24T12:06:31.024Z,97335.73
2023-11-24T12:07:33.588Z,97333.23
2023-11-24T12:08:36.359Z,97326.33
2023-11-24T12:09:39.042Z,97337.00
2023-11-24T12:10:42.653Z,97327.59
2023-11-24T12:11:45.300Z,97325.63
2023-11-24T12:12:47.845Z,97328.80
2023-11-24T12:13:51.983Z,97316.29
2023-11-24T12:14:54.511Z,97340.53
2023-11-24T12:15:57.173Z,97337.06
2023-11-24T12:17:00.740Z,97328.50
2023-11-24T12:18:03.829Z,97328.66
2023-11-24T12:19:06.753Z,97333.09
2023-11-24T12:20:12.591Z,97327.66
2023-11-24T12:21:15.318Z,97336.40
2023-11-24T12:22:18.307Z,97332.93
2023-11-24T12:23:22.343Z,97331.96
2023-11-24T12:25:37.451Z,97331.43
2023-11-24T12:26:41.527Z,97332.50
2023-11-24T12:27:44.493Z,97324.06
2023-11-24T12:28:47.622Z,97337.53
2023-11-24T12:29:50.243Z,97327.30
2023-11-24T12:30:52.983Z,97319.39
2023-11-24T12:31:56.174Z,97331.06